Time;durP1;ratioP1;P1;durP2;ratioP2;P2;SDS_P1;SDS_P2;PMS_P1;PMS_P2;Temp;Humidity;BMP_temperature;BMP_pressure;BME280_temperature;BME280_humidity;BME280_pressure;Samples;Min_cycle;Max_cycle;Signal;HPM_P1;HPM_P2
2023/11/08 00:01:04;;;;;;;32.90;21.65;;;;;;;12.00;100.00;99992.97;5094671;28;20071;-44
2023/11/08 00:03:32;;;;;;;39.25;21.90;;;;;;;12.04;100.00;99991.75;5094317;28;20080;-42
2023/11/08 00:06:01;;;;;;;36.00;21.33;;;;;;;12.08;100.00;99994.25;5094437;28;20076;-43
2023/11/08 00:08:34;;;;;;;33.78;21.48;;;;;;;12.09;100.00;99994.13;5094387;28;20043;-42
2023/11/08 00:11:03;;;;;;;31.73;20.77;;;;;;;12.08;100.00;99991.56;5094549;28;20048;-44
2023/11/08 00:13:32;;;;;;;31.75;20.67;;;;;;;12.07;100.00;99992.53;5094400;28;20044;-44
2023/11/08 00:16:00;;;;;;;30.52;21.15;;;;;;;12.09;100.00;99996.81;5094376;28;20131;-46
2023/11/08 00:18:28;;;;;;;33.95;21.42;;;;;;;12.07;100.00;99989.88;5093954;28;20051;-45
2023/11/08 00:20:57;;;;;;;35.40;21.50;;;;;;;12.07;100.00;99989.88;5094047;28;20055;-46
2023/11/08 00:23:25;;;;;;;35.53;21.65;;;;;;;12.06;100.00;99982.78;5093946;28;20113;-43
2023/11/08 00:25:55;;;;;;;31.60;20.48;;;;;;;11.96;100.00;99977.22;5094312;28;20079;-44
2023/11/08 00:28:24;;;;;;;33.25;20.40;;;;;;;11.98;100.00;99981.53;5094056;28;20066;-42
2023/11/08 00:30:52;;;;;;;32.22;20.63;;;;;;;11.95;100.00;99968.34;5094013;28;20493;-45
2023/11/08 00:33:21;;;;;;;33.25;20.75;;;;;;;11.91;100.00;99969.53;5093750;28;20127;-44
2023/11/08 00:35:50;;;;;;;36.70;20.50;;;;;;;11.81;100.00;99965.81;5093822;28;20500;-45
2023/11/08 00:38:18;;;;;;;31.80;19.63;;;;;;;11.91;100.00;99966.88;5093703;28;20154;-44
2023/11/08 00:40:47;;;;;;;33.60;20.80;;;;;;;11.98;100.00;99968.16;5093747;28;20105;-44
2023/11/08 00:43:16;;;;;;;38.75;19.42;;;;;;;12.00;100.00;99963.56;5093602;28;20044;-44
2023/11/08 00:45:45;;;;;;;29.90;20.83;;;;;;;11.76;100.00;99949.19;5093984;28;20040;-43
2023/11/08 00:48:13;;;;;;;30.98;20.42;;;;;;;11.76;100.00;99942.03;5093708;28;20063;-44
2023/11/08 00:50:42;;;;;;;33.60;21.48;;;;;;;11.78;100.00;99947.28;5093835;28;20045;-44
2023/11/08 00:53:15;;;;;;;32.45;20.80;;;;;;;11.81;100.00;99947.09;5093599;28;20456;-43
2023/11/08 00:55:43;;;;;;;33.60;20.63;;;;;;;11.88;100.00;99948.38;5093549;28;20055;-44
2023/11/08 00:58:12;;;;;;;30.05;20.13;;;;;;;11.78;100.00;99931.25;5093318;28;20383;-43
2023/11/08 01:00:42;;;;;;;33.60;20.10;;;;;;;11.64;100.00;99928.69;5093306;28;20052;-44
2023/11/08 01:03:12;;;;;;;33.60;20.17;;;;;;;11.58;100.00;99926.44;5093427;28;20048;-43
2023/11/08 01:05:41;;;;;;;32.05;19.67;;;;;;;11.58;100.00;99927.31;5093317;28;20052;-44
2023/11/08 01:08:11;;;;;;;30.80;18.98;;;;;;;11.62;100.00;99942.16;5093392;28;20044;-43
2023/11/08 01:10:41;;;;;;;34.78;20.90;;;;;;;11.70;100.00;99944.31;5093066;28;20083;-43
2023/11/08 01:13:12;;;;;;;34.67;21.38;;;;;;;11.73;100.00;99938.72;5093117;28;20051;-43
2023/11/08 01:15:42;;;;;;;31.10;20.92;;;;;;;11.75;100.00;99936.81;5093438;28;20051;-43
2023/11/08 01:18:11;;;;;;;33.78;20.58;;;;;;;11.74;100.00;99929.75;5093166;28;20051;-43
2023/11/08 01:20:41;;;;;;;36.13;21.10;;;;;;;11.71;100.00;99924.63;5093292;28;20472;-43
2023/11/08 01:23:09;;;;;;;32.08;20.52;;;;;;;11.68;100.00;99931.06;5092720;28;20055;-43
2023/11/08 01:25:37;;;;;;;35.35;21.17;;;;;;;11.76;100.00;99931.34;5093425;28;20055;-43
2023/11/08 01:28:06;;;;;;;28.55;20.02;;;;;;;11.78;100.00;99931.25;5092909;28;20067;-43
2023/11/08 01:30:34;;;;;;;30.50;20.50;;;;;;;11.82;100.00;99927.44;5092368;28;20067;-44
2023/11/08 01:33:04;;;;;;;30.63;20.27;;;;;;;11.85;100.00;99921.00;5092626;28;20549;-44
2023/11/08 01:35:33;;;;;;;34.28;21.88;;;;;;;11.87;100.00;99921.75;5092726;28;20517;-43
2023/11/08 01:38:01;;;;;;;28.35;19.33;;;;;;;11.94;100.00;99920.34;5092629;28;20048;-43
2023/11/08 01:40:30;;;;;;;33.33;21.48;;;;;;;11.92;100.00;99915.13;5092502;28;20075;-44
2023/11/08 01:42:58;;;;;;;35.60;20.70;;;;;;;11.95;100.00;99916.72;5092846;28;20130;-43
2023/11/08 01:45:26;;;;;;;32.30;20.08;;;;;;;11.95;100.00;99916.72;5092743;28;20123;-44
2023/11/08 01:47:55;;;;;;;31.90;19.88;;;;;;;12.02;100.00;99912.66;5092690;28;20427;-43
2023/11/08 01:50:26;;;;;;;30.65;19.90;;;;;;;11.98;100.00;99906.69;5092714;28;20048;-45
2023/11/08 01:52:55;;;;;;;34.97;20.60;;;;;;;11.94;100.00;99894.47;5092367;28;20048;-44
2023/11/08 01:55:23;;;;;;;29.45;19.75;;;;;;;11.97;100.00;99901.44;5092384;28;20562;-42
2023/11/08 01:57:52;;;;;;;32.22;20.77;;;;;;;11.99;100.00;99903.03;5092321;28;20105;-43
2023/11/08 02:00:23;;;;;;;33.45;20.52;;;;;;;12.00;100.00;99907.41;5092222;28;20044;-43
2023/11/08 02:02:52;;;;;;;30.80;20.65;;;;;;;11.98;100.00;99905.84;5092653;28;20072;-45
2023/11/08 02:05:22;;;;;;;28.98;19.27;;;;;;;12.02;100.00;99913.50;5093277;28;20052;-43
2023/11/08 02:07:55;;;;;;;35.22;20.33;;;;;;;12.03;100.00;99917.88;5093206;28;20089;-43
2023/11/08 02:10:24;;;;;;;29.17;19.58;;;;;;;12.04;100.00;99922.25;5093070;28;20440;-44
2023/11/08 02:12:53;;;;;;;35.28;20.67;;;;;;;12.11;100.00;99935.19;5093332;28;20044;-45
2023/11/08 02:15:24;;;;;;;33.05;21.25;;;;;;;12.09;100.00;99937.13;5093234;28;20472;-44
2023/11/08 02:17:52;;;;;;;32.25;18.30;;;;;;;11.85;100.00;99945.91;5093304;28;20058;-45
2023/11/08 02:20:21;;;;;;;33.33;17.40;;;;;;;11.79;100.00;99954.34;5092689;28;20102;-44
2023/11/08 02:22:49;;;;;;;24.83;14.20;;;;;;;11.56;100.00;99952.41;5092767;28;20052;-44
2023/11/08 02:25:23;;;;;;;23.83;12.80;;;;;;;11.59;100.00;99953.06;5092601;28;20051;-43
2023/11/08 02:27:51;;;;;;;20.45;11.60;;;;;;;11.60;100.00;99953.91;5092151;28;20052;-42
2023/11/08 02:30:20;;;;;;;15.55;8.40;;;;;;;11.46;100.00;99930.81;5091807;28;20135;-44
2023/11/08 02:32:48;;;;;;;9.30;5.38;;;;;;;11.17;100.00;99949.66;5091802;28;20048;-44
2023/11/08 02:35:17;;;;;;;6.43;3.90;;;;;;;11.02;100.00;99931.19;5092353;28;20044;-43
2023/11/08 02:37:46;;;;;;;7.45;3.80;;;;;;;10.76;100.00;99931.09;5092566;28;20127;-42
2023/11/08 02:40:14;;;;;;;6.03;3.47;;;;;;;10.96;100.00;99947.59;5092373;28;20047;-44
2023/11/08 02:42:46;;;;;;;5.78;3.38;;;;;;;10.99;100.00;99958.91;5091450;28;20044;-44
2023/11/08 02:45:15;;;;;;;5.88;3.38;;;;;;;10.74;100.00;99949.00;5091624;28;20081;-44
2023/11/08 02:47:43;;;;;;;5.85;3.05;;;;;;;10.67;100.00;99954.84;5091676;28;20139;-42
2023/11/08 02:50:12;;;;;;;5.90;3.30;;;;;;;10.54;100.00;99954.78;5091858;28;20055;-43
2023/11/08 02:52:41;;;;;;;5.60;3.17;;;;;;;10.57;100.00;99962.59;5091588;28;20059;-44
2023/11/08 02:55:11;;;;;;;4.88;2.72;;;;;;;10.60;100.00;99967.72;5091614;28;20144;-43
2023/11/08 02:57:42;;;;;;;5.38;3.20;;;;;;;10.42;100.00;99980.44;5091369;28;20424;-44
2023/11/08 03:00:14;;;;;;;5.93;2.65;;;;;;;10.53;100.00;99987.75;5091572;28;20051;-44
2023/11/08 03:02:44;;;;;;;4.60;2.67;;;;;;;10.44;100.00;99994.53;5091791;28;20139;-42
2023/11/08 03:05:12;;;;;;;5.53;2.88;;;;;;;10.39;100.00;99983.28;5091409;28;20276;-43
2023/11/08 03:07:42;;;;;;;4.38;2.67;;;;;;;10.31;100.00;99997.09;5091375;28;20056;-44
2023/11/08 03:10:13;;;;;;;5.78;2.83;;;;;;;10.30;100.00;99998.03;5091453;28;20052;-45
2023/11/08 03:12:42;;;;;;;4.30;2.22;;;;;;;10.31;100.00;100009.56;5091617;28;20059;-43
2023/11/08 03:15:12;;;;;;;3.83;1.90;;;;;;;10.15;100.00;100004.31;5091706;28;20052;-44
2023/11/08 03:17:41;;;;;;;3.60;2.08;;;;;;;10.29;100.00;100017.66;5091506;28;20063;-44
2023/11/08 03:20:12;;;;;;;3.08;1.88;;;;;;;10.22;100.00;100021.66;5091509;28;20537;-44
2023/11/08 03:22:41;;;;;;;5.72;1.95;;;;;;;10.28;100.00;100013.28;5091175;28;20448;-43
2023/11/08 03:25:11;;;;;;;3.20;1.88;;;;;;;10.34;100.00;100019.19;5091488;28;20040;-44
2023/11/08 03:27:41;;;;;;;2.38;1.48;;;;;;;10.38;100.00;100037.56;5092138;28;20095;-44
2023/11/08 03:30:14;;;;;;;2.67;1.40;;;;;;;10.20;100.00;100031.53;5093361;28;20070;-44
2023/11/08 03:32:43;;;;;;;4.57;1.90;;;;;;;10.19;100.00;100042.28;5093443;28;20055;-48
2023/11/08 03:35:13;;;;;;;3.30;1.70;;;;;;;10.20;100.00;100034.19;5092665;28;20176;-45
2023/11/08 03:37:43;;;;;;;3.60;1.90;;;;;;;10.39;100.00;100030.41;5092710;28;20044;-44
2023/11/08 03:40:13;;;;;;;3.30;1.77;;;;;;;10.16;100.00;100032.69;5092964;28;20103;-43
2023/11/08 03:42:42;;;;;;;4.13;2.17;;;;;;;10.07;100.00;100041.25;5093712;28;20063;-44
2023/11/08 03:45:12;;;;;;;3.25;2.00;;;;;;;10.18;100.00;100036.09;5093948;28;20052;-44
2023/11/08 03:47:42;;;;;;;4.00;2.40;;;;;;;10.22;100.00;100042.97;5092990;28;20051;-44
2023/11/08 03:50:11;;;;;;;4.50;2.90;;;;;;;10.19;100.00;100048.47;5093043;28;20146;-46
2023/11/08 03:52:40;;;;;;;5.38;3.13;;;;;;;10.21;100.00;100056.38;5092067;28;20048;-44
2023/11/08 03:55:09;;;;;;;4.40;3.00;;;;;;;10.24;100.00;100046.44;5095078;28;20040;-44
2023/11/08 03:57:37;;;;;;;5.78;2.95;;;;;;;10.20;100.00;100060.84;5094702;28;20052;-44
2023/11/08 04:00:08;;;;;;;5.85;3.25;;;;;;;10.17;100.00;100065.53;5094698;28;20163;-44
2023/11/08 04:02:38;;;;;;;5.78;3.05;;;;;;;10.25;100.00;100057.94;5094404;28;20072;-46
2023/11/08 04:05:06;;;;;;;5.93;3.10;;;;;;;10.12;100.00;100071.13;5094740;28;20052;-44
2023/11/08 04:07:35;;;;;;;8.23;3.80;;;;;;;10.10;100.00;100072.16;5094499;28;20044;-43
2023/11/08 04:10:03;;;;;;;9.80;4.03;;;;;;;10.16;100.00;100078.00;5094568;28;20048;-43
2023/11/08 04:12:32;;;;;;;6.28;3.63;;;;;;;10.13;100.00;100079.97;5094490;28;20052;-43
2023/11/08 04:15:00;;;;;;;6.70;3.80;;;;;;;10.26;100.00;100087.16;5094399;28;20072;-44
2023/11/08 04:17:29;;;;;;;6.40;3.45;;;;;;;10.26;100.00;100091.66;5094750;28;20091;-44
2023/11/08 04:19:58;;;;;;;6.07;3.40;;;;;;;10.38;100.00;100084.69;5094391;28;20059;-43
2023/11/08 04:22:27;;;;;;;7.15;3.53;;;;;;;10.25;100.00;100101.47;5094297;28;20078;-43
2023/11/08 04:24:55;;;;;;;5.82;3.65;;;;;;;10.22;100.00;100112.28;5094322;28;20067;-43
2023/11/08 04:27:26;;;;;;;5.95;3.60;;;;;;;10.23;100.00;100105.16;5093982;28;20421;-43
2023/11/08 04:29:54;;;;;;;6.70;3.40;;;;;;;10.41;100.00;100117.34;5094276;28;20131;-44
2023/11/08 04:32:23;;;;;;;5.82;2.88;;;;;;;10.46;100.00;100115.28;5093942;28;20059;-44
2023/11/08 04:34:55;;;;;;;9.32;3.50;;;;;;;10.52;100.00;100122.06;5094013;28;20075;-43
2023/11/08 04:37:24;;;;;;;5.60;3.05;;;;;;;10.48;100.00;100123.16;5093630;28;20044;-44
2023/11/08 04:39:52;;;;;;;6.03;2.88;;;;;;;10.31;100.00;100117.06;5093888;28;20075;-44
2023/11/08 04:42:21;;;;;;;6.22;2.72;;;;;;;10.41;100.00;100122.69;5093629;28;20068;-44
2023/11/08 04:44:49;;;;;;;5.78;3.20;;;;;;;10.33;100.00;100127.66;5093990;28;20191;-44
2023/11/08 04:47:19;;;;;;;5.00;2.80;;;;;;;10.51;100.00;100120.31;5094070;28;20131;-43
2023/11/08 04:49:49;;;;;;;5.70;3.33;;;;;;;10.36;100.00;100124.78;5093709;28;20048;-43
2023/11/08 04:52:18;;;;;;;6.07;3.58;;;;;;;10.40;100.00;100126.31;5093336;28;20465;-43
2023/11/08 04:54:50;;;;;;;5.60;3.67;;;;;;;10.23;100.00;100126.47;5093375;28;20165;-43
2023/11/08 04:57:23;;;;;;;6.13;4.00;;;;;;;10.31;100.00;100125.06;5093673;28;20044;-44
2023/11/08 04:59:51;;;;;;;7.88;4.38;;;;;;;10.31;100.00;100127.72;5093612;28;20130;-43
2023/11/08 05:02:20;;;;;;;7.63;4.80;;;;;;;10.31;100.00;100127.72;5093510;28;20048;-44
2023/11/08 05:04:50;;;;;;;7.18;4.70;;;;;;;10.28;100.00;100122.59;5092604;28;20059;-44
2023/11/08 05:07:19;;;;;;;8.77;5.10;;;;;;;10.26;100.00;100128.97;5092926;28;20459;-43
2023/11/08 05:09:50;;;;;;;7.75;5.25;;;;;;;10.17;100.00;100124.16;5093315;28;20127;-43
2023/11/08 05:12:20;;;;;;;8.45;5.68;;;;;;;10.23;100.00;100124.69;5093100;28;20048;-44
2023/11/08 05:14:49;;;;;;;8.88;5.68;;;;;;;10.19;100.00;100124.91;5093288;28;20044;-44
2023/11/08 05:17:20;;;;;;;8.65;5.75;;;;;;;10.03;100.00;100132.97;5093087;28;20086;-43
2023/11/08 05:19:48;;;;;;;7.53;5.30;;;;;;;10.16;100.00;100128.63;5091762;28;20055;-42
2023/11/08 05:22:17;;;;;;;9.07;5.85;;;;;;;10.16;100.00;100144.63;5092767;28;20048;-43
2023/11/08 05:24:46;;;;;;;7.15;5.18;;;;;;;10.20;100.00;100131.97;5093017;28;20051;-44
2023/11/08 05:27:18;;;;;;;8.68;5.20;;;;;;;10.13;100.00;100139.47;5093064;28;20113;-42
2023/11/08 05:29:46;;;;;;;8.52;5.50;;;;;;;10.16;100.00;100146.44;5092931;28;20075;-44
2023/11/08 05:32:17;;;;;;;7.25;5.15;;;;;;;10.18;100.00;100145.38;5092844;28;20044;-42
2023/11/08 05:34:48;;;;;;;9.82;5.20;;;;;;;10.19;100.00;100154.25;5092633;28;20051;-44
2023/11/08 05:37:16;;;;;;;7.68;4.97;;;;;;;10.09;100.00;100158.41;5092455;28;20437;-45
2023/11/08 05:39:45;;;;;;;6.38;4.32;;;;;;;10.09;100.00;100153.94;5092707;28;20048;-44
2023/11/08 05:42:15;;;;;;;7.35;4.30;;;;;;;10.22;100.00;100160.25;5092506;28;20079;-43
2023/11/08 05:44:44;;;;;;;6.57;4.25;;;;;;;10.19;100.00;100171.09;5092691;28;20071;-42
2023/11/08 05:47:12;;;;;;;6.72;4.32;;;;;;;10.14;100.00;100161.66;5092416;28;20143;-44
2023/11/08 05:49:41;;;;;;;7.28;4.40;;;;;;;10.08;100.00;100176.22;5092463;28;20067;-44
2023/11/08 05:52:09;;;;;;;6.68;3.97;;;;;;;10.13;100.00;100176.78;5092400;28;20481;-43
2023/11/08 05:54:38;;;;;;;6.30;4.32;;;;;;;10.24;100.00;100179.72;5092410;28;20044;-46
2023/11/08 05:57:06;;;;;;;6.30;4.35;;;;;;;10.13;100.00;100184.78;5092554;28;20047;-44
2023/11/08 05:59:35;;;;;;;6.95;4.47;;;;;;;10.30;100.00;100184.66;5092123;28;20052;-45
2023/11/08 06:02:05;;;;;;;7.35;4.40;;;;;;;9.95;100.00;100183.22;5092188;28;20561;-42
2023/11/08 06:04:34;;;;;;;7.72;4.57;;;;;;;10.11;100.00;100191.16;5092406;28;20044;-43
2023/11/08 06:07:03;;;;;;;7.18;4.50;;;;;;;10.15;100.00;100188.22;5091687;28;20048;-44
2023/11/08 06:09:31;;;;;;;8.00;4.43;;;;;;;10.25;100.00;100196.56;5091793;28;20135;-42
2023/11/08 06:11:59;;;;;;;6.30;4.15;;;;;;;10.20;100.00;100199.47;5091908;28;20433;-43
2023/11/08 06:14:28;;;;;;;6.30;4.40;;;;;;;10.23;100.00;100204.66;5091904;28;20050;-44
2023/11/08 06:16:57;;;;;;;8.45;4.28;;;;;;;9.98;100.00;100209.69;5092001;28;20048;-43
2023/11/08 06:19:28;;;;;;;6.72;3.97;;;;;;;10.06;100.00;100218.09;5091870;28;20428;-43
2023/11/08 06:21:56;;;;;;;6.82;4.57;;;;;;;10.17;100.00;100215.66;5091516;28;20143;-41
2023/11/08 06:24:25;;;;;;;8.98;4.70;;;;;;;9.98;100.00;100225.66;5091535;28;20097;-44
2023/11/08 06:26:53;;;;;;;7.13;4.60;;;;;;;10.26;100.00;100235.59;5091289;28;20197;-48
2023/11/08 06:29:21;;;;;;;6.50;4.55;;;;;;;10.36;100.00;100228.78;5091833;28;20166;-43
2023/11/08 06:31:50;;;;;;;7.40;4.50;;;;;;;10.40;100.00;100237.44;5091734;28;20051;-44
2023/11/08 06:34:18;;;;;;;6.03;4.43;;;;;;;10.26;100.00;100241.78;5091852;28;20097;-42
2023/11/08 06:36:49;;;;;;;7.60;4.70;;;;;;;10.26;100.00;100251.59;5091571;28;20072;-43
2023/11/08 06:39:18;;;;;;;6.25;3.95;;;;;;;10.47;100.00;100244.97;5091478;28;20055;-44
2023/11/08 06:41:46;;;;;;;6.60;4.35;;;;;;;10.42;100.00;100249.75;5091590;28;20144;-42
2023/11/08 06:44:14;;;;;;;7.85;4.40;;;;;;;10.27;100.00;100251.50;5091568;28;20040;-42
2023/11/08 06:46:42;;;;;;;7.22;4.43;;;;;;;10.50;100.00;100254.59;5091332;28;20487;-44
2023/11/08 06:49:11;;;;;;;6.82;4.13;;;;;;;10.45;100.00;100262.03;5091256;28;20079;-42
2023/11/08 06:51:39;;;;;;;6.43;4.00;;;;;;;10.47;100.00;100260.13;5090910;28;20097;-45
2023/11/08 06:54:09;;;;;;;6.88;4.20;;;;;;;10.49;100.00;100264.41;5091151;28;20045;-43
2023/11/08 06:56:37;;;;;;;6.15;4.10;;;;;;;10.70;100.00;100275.59;5091395;28;20081;-43
2023/11/08 06:59:06;;;;;;;6.88;4.18;;;;;;;10.65;100.00;100280.38;5091334;28;20051;-42
2023/11/08 07:01:36;;;;;;;5.85;3.65;;;;;;;10.73;100.00;100283.44;5091277;28;20093;-43
2023/11/08 07:04:05;;;;;;;6.90;4.00;;;;;;;10.80;100.00;100303.44;5091330;28;20048;-44
2023/11/08 07:06:34;;;;;;;6.07;4.00;;;;;;;10.55;100.00;100295.22;5091022;28;20048;-43
2023/11/08 07:09:02;;;;;;;7.05;3.70;;;;;;;10.50;100.00;100294.59;5090872;28;20055;-43
2023/11/08 07:11:32;;;;;;;8.00;3.63;;;;;;;10.65;100.00;100296.38;5090614;28;20133;-43
2023/11/08 07:14:00;;;;;;;6.72;3.80;;;;;;;10.60;100.00;100298.44;5090870;28;20040;-42
2023/11/08 07:16:29;;;;;;;6.95;3.60;;;;;;;10.75;100.00;100305.53;5090770;28;20043;-41
2023/11/08 07:18:57;;;;;;;7.88;4.13;;;;;;;10.65;100.00;100312.38;5090643;28;20556;-42
2023/11/08 07:21:26;;;;;;;5.65;3.60;;;;;;;10.70;100.00;100310.28;5090887;28;20048;-42
2023/11/08 07:23:54;;;;;;;7.97;4.10;;;;;;;10.68;100.00;100309.53;5090340;28;20105;-43
2023/11/08 07:26:22;;;;;;;6.85;3.70;;;;;;;10.70;100.00;100312.94;5090885;28;20048;-42
2023/11/08 07:28:52;;;;;;;7.03;3.67;;;;;;;10.62;100.00;100317.91;5092922;28;20100;-43
2023/11/08 07:31:20;;;;;;;7.15;3.60;;;;;;;10.48;100.00;100325.84;5094640;28;20044;-43
2023/11/08 07:33:49;;;;;;;5.22;3.28;;;;;;;10.50;100.00;100330.13;5094390;28;20048;-43
2023/11/08 07:36:18;;;;;;;5.72;3.60;;;;;;;10.66;100.00;100332.78;5094455;28;20048;-42
2023/11/08 07:38:46;;;;;;;6.40;3.30;;;;;;;10.84;100.00;100322.81;5094449;28;20838;-45
2023/11/08 07:41:14;;;;;;;6.15;3.58;;;;;;;10.99;100.00;100334.34;5094251;28;20131;-43
2023/11/08 07:43:43;;;;;;;5.57;3.33;;;;;;;10.97;100.00;100333.59;5094328;28;20044;-43
2023/11/08 07:46:13;;;;;;;5.63;3.42;;;;;;;10.77;100.00;100338.31;5094542;28;20048;-44
2023/11/08 07:48:41;;;;;;;8.20;3.40;;;;;;;10.84;100.00;100339.69;5094595;28;20130;-43
2023/11/08 07:51:09;;;;;;;6.20;3.78;;;;;;;10.87;100.00;100327.97;5094409;28;20135;-43
2023/11/08 07:53:37;;;;;;;5.88;3.38;;;;;;;11.13;100.00;100334.41;5094166;28;20493;-43
2023/11/08 07:56:07;;;;;;;6.20;3.63;;;;;;;11.42;100.00;100336.13;5094347;28;20040;-42
2023/11/08 07:58:36;;;;;;;7.35;3.60;;;;;;;10.88;100.00;100332.34;5094203;28;20134;-43
2023/11/08 08:01:05;;;;;;;5.70;3.15;;;;;;;11.03;100.00;100333.25;5094456;28;20047;-45
2023/11/08 08:03:35;;;;;;;5.10;3.00;;;;;;;10.99;100.00;100323.69;5093931;28;20055;-45
2023/11/08 08:06:05;;;;;;;5.35;2.63;;;;;;;11.16;100.00;100326.19;5093876;28;20081;-44
2023/11/08 08:08:33;;;;;;;5.13;2.70;;;;;;;11.10;100.00;100323.91;5091908;28;20049;-42
2023/11/08 08:11:01;;;;;;;6.50;2.83;;;;;;;11.00;100.00;100346.75;5093789;28;20523;-43
2023/11/08 08:13:30;;;;;;;4.90;2.67;;;;;;;10.78;100.00;100353.38;5093844;28;20048;-44
2023/11/08 08:16:00;;;;;;;5.93;2.97;;;;;;;10.77;100.00;100348.13;5094123;28;20081;-42
2023/11/08 08:18:29;;;;;;;5.53;2.50;;;;;;;10.55;100.00;100337.88;5093952;28;20105;-42
2023/11/08 08:20:59;;;;;;;5.65;2.58;;;;;;;10.47;100.00;100334.81;5093799;28;20098;-43
2023/11/08 08:23:27;;;;;;;9.68;3.03;;;;;;;10.67;100.00;100344.28;5093633;28;20055;-42
2023/11/08 08:25:56;;;;;;;5.05;2.78;;;;;;;10.80;100.00;100338.13;5093501;28;20105;-43
2023/11/08 08:28:25;;;;;;;5.75;2.80;;;;;;;10.75;100.00;100334.03;5093736;28;20055;-43
2023/11/08 08:30:53;;;;;;;5.00;2.90;;;;;;;11.13;100.00;100345.06;5093837;28;20505;-44
2023/11/08 08:33:22;;;;;;;7.20;2.85;;;;;;;10.99;100.00;100337.03;5093796;28;20051;-43
2023/11/08 08:35:51;;;;;;;4.57;2.60;;;;;;;10.96;100.00;100358.56;5093819;28;20508;-43
2023/11/08 08:38:21;;;;;;;5.97;2.85;;;;;;;11.21;100.00;100348.13;5093702;28;20109;-44
2023/11/08 08:40:50;;;;;;;4.78;2.90;;;;;;;11.10;100.00;100351.47;5091858;28;20054;-43
2023/11/08 08:43:19;;;;;;;5.15;2.17;;;;;;;10.99;100.00;100355.72;5093680;28;20060;-45
2023/11/08 08:45:48;;;;;;;5.15;2.20;;;;;;;11.11;100.00;100346.97;5093369;28;20527;-42
2023/11/08 08:48:16;;;;;;;4.72;2.03;;;;;;;11.27;100.00;100341.53;5093106;28;20044;-44
2023/11/08 08:50:44;;;;;;;3.20;1.90;;;;;;;11.42;100.00;100336.13;5093030;28;20048;-44
2023/11/08 08:53:13;;;;;;;4.88;2.25;;;;;;;11.49;100.00;100341.09;5093274;28;20047;-43
2023/11/08 08:55:42;;;;;;;4.80;2.10;;;;;;;11.57;100.00;100344.13;5093434;28;20441;-44
2023/11/08 08:58:11;;;;;;;4.13;2.10;;;;;;;11.26;100.00;100327.34;5093040;28;20059;-44
2023/11/08 09:00:40;;;;;;;6.60;1.90;;;;;;;11.32;100.00;100334.13;5092976;28;20085;-42
2023/11/08 09:03:08;;;;;;;5.13;2.40;;;;;;;11.57;100.00;100338.78;5093048;28;20048;-42
2023/11/08 09:05:37;;;;;;;4.45;2.00;;;;;;;11.57;100.00;100339.63;5093039;28;20048;-44
2023/11/08 09:08:05;;;;;;;3.67;1.90;;;;;;;11.38;100.00;100334.56;5093382;28;20048;-41
2023/11/08 09:10:33;;;;;;;5.78;1.85;;;;;;;11.46;100.00;100344.78;5093190;28;20051;-45
2023/11/08 09:13:03;;;;;;;4.05;1.73;;;;;;;11.73;100.00;100350.22;5092970;28;20059;-42
2023/11/08 09:15:32;;;;;;;2.65;1.50;;;;;;;11.62;100.00;100337.53;5093013;28;20483;-43
2023/11/08 09:18:00;;;;;;;3.92;1.60;;;;;;;11.84;100.00;100339.72;5092756;28;20048;-43
2023/11/08 09:20:29;;;;;;;3.47;1.50;;;;;;;11.99;100.00;100346.78;5092756;28;20051;-43
2023/11/08 09:23:00;;;;;;;3.88;1.50;;;;;;;11.73;100.00;100351.06;5092834;28;20108;-43
2023/11/08 09:25:28;;;;;;;4.28;1.83;;;;;;;11.79;100.00;100357.88;5092843;28;20153;-44
2023/11/08 09:27:57;;;;;;;5.93;1.80;;;;;;;11.80;100.00;100351.59;5094028;28;20047;-43
2023/11/08 09:30:29;;;;;;;3.00;1.52;;;;;;;11.76;100.00;100356.22;5095590;28;20047;-43
2023/11/08 09:32:58;;;;;;;4.72;1.70;;;;;;;11.88;100.00;100359.97;5095929;28;20054;-48
2023/11/08 09:35:26;;;;;;;2.53;1.63;;;;;;;11.61;100.00;100364.38;5095164;28;20101;-42
2023/11/08 09:37:55;;;;;;;4.20;1.40;;;;;;;11.89;100.00;100361.69;5095296;28;20040;-44
2023/11/08 09:40:23;;;;;;;3.58;1.40;;;;;;;12.16;100.00;100355.50;5096186;28;20048;-44
2023/11/08 09:42:53;;;;;;;4.68;1.55;;;;;;;12.09;100.00;100373.78;5094619;28;20044;-43
2023/11/08 09:45:26;;;;;;;3.45;1.50;;;;;;;12.06;100.00;100383.78;5092456;28;20123;-42
2023/11/08 09:47:57;;;;;;;4.28;1.52;;;;;;;12.22;100.00;100388.06;5092952;28;20079;-42
2023/11/08 09:50:27;;;;;;;3.80;1.60;;;;;;;11.92;100.00;100380.19;5092251;28;20056;-43
2023/11/08 09:52:56;;;;;;;2.95;1.40;;;;;;;12.20;100.00;100390.00;5092492;28;20055;-43
2023/11/08 09:55:24;;;;;;;3.72;1.58;;;;;;;12.21;100.00;100401.53;5092319;28;20075;-42
2023/11/08 09:57:54;;;;;;;3.20;1.40;;;;;;;12.17;100.00;100394.69;5092091;28;20051;-42
2023/11/08 10:00:26;;;;;;;2.28;1.23;;;;;;;12.20;100.00;100402.50;5092310;28;20123;-43
2023/11/08 10:02:58;;;;;;;3.57;1.50;;;;;;;12.16;100.00;100393.81;5092429;28;20342;-42
2023/11/08 10:05:27;;;;;;;2.33;1.42;;;;;;;12.14;100.00;100402.88;5092200;28;20040;-43
2023/11/08 10:07:56;;;;;;;3.28;1.30;;;;;;;12.31;100.00;100399.97;5092059;28;20056;-43
2023/11/08 10:10:24;;;;;;;4.07;1.42;;;;;;;12.23;100.00;100396.94;5091786;28;20048;-41
2023/11/08 10:13:03;;;;;;;3.13;1.30;;;;;;;12.31;100.00;100387.47;5092040;28;20495;-43
2023/11/08 10:15:33;;;;;;;3.15;1.20;;;;;;;12.10;100.00;100390.69;5091921;28;20055;-46
2023/11/08 10:18:03;;;;;;;3.40;1.05;;;;;;;12.14;100.00;100371.66;5091900;28;20181;-43
2023/11/08 10:20:51;;;;;;;3.70;1.30;;;;;;;12.16;100.00;100369.75;5091615;28;20382;-44
2023/11/08 10:23:32;;;;;;;4.38;1.40;;;;;;;12.47;100.00;100363.25;5091573;28;20094;-42
2023/11/08 10:26:15;;;;;;;3.67;1.20;;;;;;;12.56;100.00;100356.44;5091588;28;20083;-42
2023/11/08 10:28:57;;;;;;;3.88;1.27;;;;;;;12.33;100.00;100348.09;5091492;28;20044;-42
2023/11/08 10:31:35;;;;;;;7.25;1.50;;;;;;;12.64;100.00;100347.88;5091361;28;20120;-42
2023/11/08 10:34:06;;;;;;;2.90;1.10;;;;;;;12.65;100.00;100350.47;5091557;28;20059;-42
2023/11/08 10:36:36;;;;;;;2.55;1.05;;;;;;;12.56;100.00;100335.88;5091481;28;20048;-42
2023/11/08 10:39:06;;;;;;;2.67;1.10;;;;;;;12.66;100.00;100341.47;5091653;28;20152;-43
2023/11/08 10:41:36;;;;;;;2.90;1.00;;;;;;;12.53;100.00;100341.41;5091355;28;20047;-43
2023/11/08 10:44:10;;;;;;;2.42;1.13;;;;;;;12.41;100.00;100331.56;5091480;28;20091;-44
2023/11/08 10:46:41;;;;;;;1.67;0.90;;;;;;;12.54;100.00;100334.25;5091960;28;20055;-43
2023/11/08 10:49:11;;;;;;;2.85;1.00;;;;;;;12.70;100.00;100336.75;5094515;28;20090;-42
2023/11/08 10:51:41;;;;;;;5.38;1.80;;;;;;;12.63;100.00;100346.16;5091476;28;20119;-42
2023/11/08 10:54:10;;;;;;;4.93;1.02;;;;;;;12.58;100.00;100344.66;5091489;28;20043;-43
2023/11/08 10:56:38;;;;;;;3.08;1.10;;;;;;;12.48;100.00;100346.25;5091318;28;20044;-42
2023/11/08 10:59:11;;;;;;;3.67;1.38;;;;;;;12.52;100.00;100345.06;5091345;28;20101;-43
2023/11/08 11:01:43;;;;;;;2.67;0.82;;;;;;;12.68;100.00;100341.38;5091183;28;20419;-43
2023/11/08 11:04:16;;;;;;;3.58;1.20;;;;;;;12.85;100.00;100341.94;5090212;28;20052;-43
2023/11/08 11:06:48;;;;;;;2.15;0.90;;;;;;;12.83;100.00;100324.25;5091476;28;20168;-42
2023/11/08 11:09:18;;;;;;;2.95;1.25;;;;;;;12.82;100.00;100342.13;5091270;28;20048;-42
2023/11/08 11:11:52;;;;;;;4.03;1.13;;;;;;;12.91;100.00;100337.97;5091144;28;20048;-43
2023/11/08 11:14:28;;;;;;;2.65;0.98;;;;;;;12.93;100.00;100336.03;5090962;28;20058;-42
2023/11/08 11:17:03;;;;;;;3.20;1.02;;;;;;;12.76;100.00;100341.72;5090611;28;20048;-41
2023/11/08 11:19:33;;;;;;;2.58;1.00;;;;;;;12.86;100.00;100342.81;5090581;28;20080;-42
2023/11/08 11:22:08;;;;;;;2.42;1.02;;;;;;;12.96;100.00;100346.56;5090791;28;20382;-43
2023/11/08 11:24:39;;;;;;;3.55;1.05;;;;;;;12.69;100.00;100351.13;5091064;28;20139;-42
2023/11/08 11:27:10;;;;;;;3.72;1.10;;;;;;;12.85;100.00;100349.13;5090803;28;20151;-42